UAL174 PGUM-PGSN
Flight info
| Callsign | UAL174 |
|---|---|
| Flight time | N/A |
| Altitude | 15000 |
| Route | BAGBE WILLE |
| Aircraft | B38M/M-SDE1FGHILORVWXY/HB1 |
Departure
| Time | 2026-04-30 15:14 |
|---|---|
| Airport | Antonio B. Won Pat International Airport (PGUM) |
Arrival
| Time | N/A |
|---|---|
| Airport | Saipan International Airport (PGSN) |
| Time | Latitude | Longitude | Altitude | Speed | Heading |
|---|---|---|---|---|---|
| 2026-04-30 14:38 | 13.49448 | 144.80862 | 301 ft | 0 kts | 154° |
| 2026-04-30 15:03 | 13.49457 | 144.80858 | 318 ft | 4 kts | 167° |
| 2026-04-30 15:03 | 13.49502 | 144.80837 | 301 ft | 4 kts | 111° |
| 2026-04-30 15:04 | 13.49501 | 144.80816 | 301 ft | 1 kts | 63° |
| 2026-04-30 15:06 | 13.49510 | 144.80833 | 301 ft | 4 kts | 63° |
| 2026-04-30 15:07 | 13.49549 | 144.80923 | 300 ft | 9 kts | 84° |
| 2026-04-30 15:07 | 13.49432 | 144.81017 | 300 ft | 14 kts | 153° |
| 2026-04-30 15:08 | 13.49279 | 144.80944 | 302 ft | 18 kts | 242° |
| 2026-04-30 15:08 | 13.49082 | 144.80568 | 302 ft | 22 kts | 242° |
| 2026-04-30 15:09 | 13.48895 | 144.80302 | 298 ft | 26 kts | 238° |
| 2026-04-30 15:09 | 13.48726 | 144.79955 | 293 ft | 28 kts | 245° |
| 2026-04-30 15:10 | 13.48561 | 144.79597 | 294 ft | 25 kts | 246° |
| 2026-04-30 15:11 | 13.48286 | 144.78991 | 288 ft | 24 kts | 245° |
| 2026-04-30 15:11 | 13.48137 | 144.78668 | 286 ft | 20 kts | 245° |
| 2026-04-30 15:12 | 13.47956 | 144.78385 | 275 ft | 18 kts | 158° |
| 2026-04-30 15:13 | 13.47960 | 144.78549 | 271 ft | 36 kts | 64° |
| 2026-04-30 15:14 | 13.49475 | 144.81967 | 1414 ft | 167 kts | 65° |
| 2026-04-30 15:14 | 13.50859 | 144.85579 | 3130 ft | 217 kts | 75° |
| 2026-04-30 15:16 | 13.53498 | 144.94072 | 7094 ft | 265 kts | 70° |
| 2026-04-30 15:17 | 13.59936 | 144.97787 | 10268 ft | 292 kts | 17° |
| 2026-04-30 15:18 | 13.69950 | 145.00600 | 13277 ft | 334 kts | 18° |
| 2026-04-30 15:19 | 13.76828 | 145.02530 | 14903 ft | 345 kts | 17° |